Time;durP1;ratioP1;P1;durP2;ratioP2;P2;SDS_P1;SDS_P2;PMS_P1;PMS_P2;Temp;Humidity;BMP_temperature;BMP_pressure;BME280_temperature;BME280_humidity;BME280_pressure;Samples;Min_cycle;Max_cycle;Signal;HPM_P1;HPM_P2
2023/03/25 00:00:52;;;;;;;1.40;0.83;;;10.60;99.90;;;;;;5053487;28;20528;-72
2023/03/25 00:03:21;;;;;;;2.40;1.40;;;10.60;99.90;;;;;;5055574;28;20865;-73
2023/03/25 00:05:48;;;;;;;3.33;1.00;;;10.70;99.90;;;;;;5057369;28;20984;-73
2023/03/25 00:08:16;;;;;;;2.73;0.90;;;10.70;99.90;;;;;;5054507;28;20447;-73
2023/03/25 00:10:53;;;;;;;2.17;1.20;;;10.60;99.90;;;;;;5063046;28;20447;-73
2023/03/25 00:13:21;;;;;;;3.87;1.77;;;10.60;99.90;;;;;;5059426;28;20978;-72
2023/03/25 00:15:48;;;;;;;5.23;0.90;;;10.60;99.90;;;;;;5054315;28;20907;-72
2023/03/25 00:18:17;;;;;;;19.60;1.67;;;10.60;99.90;;;;;;5054720;28;20451;-73
2023/03/25 00:20:48;;;;;;;1.77;1.00;;;10.60;99.90;;;;;;5063755;28;20418;-73
2023/03/25 00:23:18;;;;;;;1.10;0.90;;;10.50;99.90;;;;;;5054940;28;20433;-73
2023/03/25 00:25:47;;;;;;;1.17;0.93;;;10.40;99.90;;;;;;5054290;28;20505;-72
2023/03/25 00:28:15;;;;;;;1.00;0.80;;;10.40;99.90;;;;;;5053818;28;20467;-73
2023/03/25 00:30:45;;;;;;;1.00;0.70;;;10.40;99.90;;;;;;5052457;28;20509;-73
2023/03/25 00:33:12;;;;;;;1.77;1.40;;;10.40;99.90;;;;;;5054212;28;20526;-72
2023/03/25 00:35:43;;;;;;;1.20;1.07;;;10.20;99.90;;;;;;5053951;28;20443;-73
2023/03/25 00:38:10;;;;;;;1.20;0.90;;;10.20;99.90;;;;;;5053911;28;20481;-73
2023/03/25 00:40:39;;;;;;;2.53;1.10;;;10.20;99.90;;;;;;5054561;28;20530;-72
2023/03/25 00:43:10;;;;;;;3.53;1.13;;;10.20;99.90;;;;;;5054237;28;20562;-74
2023/03/25 00:45:38;;;;;;;5.53;1.03;;;10.30;99.90;;;;;;5054008;28;20427;-73
2023/03/25 00:48:05;;;;;;;2.73;1.10;;;10.20;99.90;;;;;;5052196;28;20463;-73
2023/03/25 00:50:32;;;;;;;1.07;0.93;;;10.20;99.90;;;;;;5053947;28;20486;-72
2023/03/25 00:53:03;;;;;;;3.60;1.57;;;10.20;99.90;;;;;;5053429;28;20475;-73
2023/03/25 00:55:30;;;;;;;3.10;1.00;;;10.20;99.90;;;;;;5053792;28;20430;-72
2023/03/25 00:57:56;;;;;;;3.63;0.90;;;10.20;99.90;;;;;;5053248;28;20471;-73
2023/03/25 01:00:27;;;;;;;2.07;1.00;;;10.30;99.90;;;;;;5053582;28;20447;-72
2023/03/25 01:02:54;;;;;;;1.87;1.20;;;10.20;99.90;;;;;;5053689;28;20492;-72
2023/03/25 01:05:22;;;;;;;2.83;1.20;;;10.30;99.90;;;;;;5060304;28;20422;-73
2023/03/25 01:07:50;;;;;;;2.17;0.97;;;10.30;99.90;;;;;;5066884;28;20434;-72
2023/03/25 01:10:18;;;;;;;1.27;0.80;;;10.30;99.90;;;;;;5053439;28;20580;-72
2023/03/25 01:12:45;;;;;;;1.00;0.70;;;10.30;99.90;;;;;;5053304;28;20479;-73
2023/03/25 01:15:14;;;;;;;1.20;0.90;;;10.30;99.90;;;;;;5053116;28;20447;-73
2023/03/25 01:17:42;;;;;;;1.40;0.90;;;10.40;99.90;;;;;;5052825;28;20474;-73
2023/03/25 01:20:12;;;;;;;1.30;1.20;;;10.40;99.90;;;;;;5053157;28;20483;-73
2023/03/25 01:22:39;;;;;;;2.33;1.13;;;10.40;99.90;;;;;;5052658;28;20456;-72
2023/03/25 01:25:09;;;;;;;1.13;0.83;;;10.50;99.90;;;;;;5053034;28;20540;-71
2023/03/25 01:27:36;;;;;;;1.53;1.30;;;10.30;99.90;;;;;;5052874;28;20550;-72
2023/03/25 01:30:04;;;;;;;1.60;1.20;;;10.30;99.90;;;;;;5052578;28;20443;-72
2023/03/25 01:32:31;;;;;;;1.10;0.80;;;10.30;99.90;;;;;;5034276;28;20444;-72
2023/03/25 01:34:59;;;;;;;1.00;0.80;;;10.30;99.90;;;;;;5056726;28;20444;-71
2023/03/25 01:37:26;;;;;;;3.97;1.60;;;10.20;99.90;;;;;;5060092;28;20471;-72
2023/03/25 01:39:53;;;;;;;1.20;0.80;;;10.20;99.90;;;;;;5052862;28;20435;-72
2023/03/25 01:42:20;;;;;;;1.37;1.00;;;10.20;99.90;;;;;;5052880;28;20475;-73
2023/03/25 01:45:14;;;;;;;1.10;0.90;;;10.30;99.90;;;;;;5055728;28;20531;-73
2023/03/25 01:47:43;;;;;;;1.40;1.30;;;10.30;99.90;;;;;;5054487;28;20463;-72
2023/03/25 01:50:16;;;;;;;2.60;1.77;;;10.30;99.90;;;;;;5052112;28;20451;-72
2023/03/25 01:52:46;;;;;;;4.90;1.13;;;10.20;99.90;;;;;;5052274;28;20431;-72
2023/03/25 01:55:16;;;;;;;2.20;1.00;;;10.10;99.90;;;;;;5065203;28;20531;-72
2023/03/25 01:57:45;;;;;;;2.90;1.00;;;10.20;99.90;;;;;;5055888;28;20459;-72
2023/03/25 02:00:15;;;;;;;1.00;0.70;;;10.30;99.90;;;;;;5052785;28;20507;-73
2023/03/25 02:02:46;;;;;;;4.23;1.30;;;10.30;99.90;;;;;;5063789;28;20468;-72
2023/03/25 02:05:20;;;;;;;1.00;0.90;;;10.30;99.90;;;;;;5052235;28;20491;-72
2023/03/25 02:07:49;;;;;;;1.93;1.70;;;10.20;99.90;;;;;;5051857;28;20467;-72
2023/03/25 02:10:17;;;;;;;1.10;0.80;;;10.20;99.90;;;;;;5051688;28;20443;-73
2023/03/25 02:12:45;;;;;;;1.10;0.80;;;10.20;99.90;;;;;;5051512;28;20440;-73
2023/03/25 02:15:17;;;;;;;1.07;0.77;;;10.10;99.90;;;;;;5051458;28;20486;-73
2023/03/25 02:18:11;;;;;;;3.00;0.90;;;10.20;99.90;;;;;;5051747;28;20443;-73
2023/03/25 02:21:19;;;;;;;1.10;0.90;;;10.20;99.90;;;;;;5035130;28;20440;-72
2023/03/25 02:24:44;;;;;;;3.17;1.20;;;10.20;99.90;;;;;;5029899;28;20475;-73
2023/03/25 02:27:27;;;;;;;1.43;0.80;;;10.10;99.90;;;;;;5057455;28;20464;-73
2023/03/25 02:30:34;;;;;;;4.73;0.97;;;10.10;99.90;;;;;;5051639;28;20440;-73
2023/03/25 02:33:31;;;;;;;1.00;0.80;;;9.90;99.90;;;;;;5051150;28;20945;-73
2023/03/25 02:36:21;;;;;;;1.30;1.00;;;9.90;99.90;;;;;;5051339;28;20865;-73
2023/03/25 02:38:53;;;;;;;7.87;1.33;;;9.90;99.90;;;;;;5051065;28;20542;-73
2023/03/25 02:41:29;;;;;;;1.00;0.80;;;10.00;99.90;;;;;;5051780;28;20519;-73
2023/03/25 02:44:01;;;;;;;0.90;0.60;;;10.00;99.90;;;;;;5057397;28;20856;-73
2023/03/25 02:46:30;;;;;;;1.67;1.10;;;10.00;99.90;;;;;;5053388;28;20529;-73
2023/03/25 02:49:01;;;;;;;1.40;1.00;;;10.00;99.90;;;;;;5052094;28;20534;-73
2023/03/25 02:51:32;;;;;;;1.70;0.90;;;10.00;99.90;;;;;;5059443;28;20934;-73
2023/03/25 02:54:04;;;;;;;2.83;1.17;;;10.00;99.90;;;;;;5051361;28;21034;-73
2023/03/25 02:56:32;;;;;;;6.13;1.67;;;10.10;99.90;;;;;;5055796;28;20466;-73
2023/03/25 02:59:02;;;;;;;2.13;0.97;;;10.10;99.90;;;;;;5063800;28;20633;-73
2023/03/25 03:01:33;;;;;;;1.10;0.70;;;10.10;99.90;;;;;;5050970;28;20488;-73
2023/03/25 03:04:00;;;;;;;1.30;0.90;;;10.00;99.90;;;;;;5050745;28;20468;-73
2023/03/25 03:06:28;;;;;;;1.37;0.83;;;10.10;99.90;;;;;;5051064;28;20507;-73
2023/03/25 03:09:13;;;;;;;2.20;1.17;;;10.10;99.90;;;;;;5051242;28;20527;-73
2023/03/25 03:11:48;;;;;;;3.20;1.20;;;10.10;99.90;;;;;;5051105;28;20515;-73
2023/03/25 03:14:37;;;;;;;2.73;1.20;;;10.10;99.90;;;;;;5051237;28;20459;-73
2023/03/25 03:17:12;;;;;;;4.50;1.40;;;10.10;99.90;;;;;;5051323;28;20438;-73
2023/03/25 03:19:45;;;;;;;3.40;1.23;;;10.20;99.90;;;;;;5066690;28;20420;-74
2023/03/25 03:22:28;;;;;;;10.43;1.10;;;10.00;99.90;;;;;;5070404;28;20423;-73
2023/03/25 03:25:04;;;;;;;4.20;1.20;;;10.00;99.90;;;;;;5052908;28;20431;-73
2023/03/25 03:27:34;;;;;;;1.60;0.93;;;10.10;99.90;;;;;;5054235;28;20498;-72
2023/03/25 03:30:09;;;;;;;1.70;1.03;;;10.10;99.90;;;;;;5051188;28;20428;-72
2023/03/25 03:32:44;;;;;;;3.20;0.90;;;10.00;99.90;;;;;;5050628;28;20473;-73
2023/03/25 03:35:18;;;;;;;1.53;1.07;;;10.00;99.90;;;;;;5050370;28;20434;-73
2023/03/25 03:37:51;;;;;;;2.17;2.00;;;10.00;99.90;;;;;;5050296;28;20562;-73
2023/03/25 03:40:23;;;;;;;2.33;0.90;;;10.00;99.90;;;;;;5050377;28;20438;-72
2023/03/25 03:42:55;;;;;;;1.50;1.10;;;9.90;99.90;;;;;;5051539;28;20562;-72
2023/03/25 03:45:27;;;;;;;2.13;1.13;;;10.00;99.90;;;;;;5068032;28;20424;-73
2023/03/25 03:48:00;;;;;;;1.10;0.90;;;10.00;99.90;;;;;;5052777;28;20814;-71
2023/03/25 03:50:31;;;;;;;3.00;0.90;;;10.00;99.90;;;;;;5051203;28;20428;-72
2023/03/25 03:53:04;;;;;;;2.83;1.43;;;10.00;99.90;;;;;;5054482;28;20424;-73
2023/03/25 03:55:38;;;;;;;1.30;0.90;;;9.90;99.90;;;;;;5055900;28;20482;-73
2023/03/25 03:58:14;;;;;;;1.57;1.27;;;9.80;99.90;;;;;;5050398;28;20474;-73
2023/03/25 04:00:48;;;;;;;2.20;1.20;;;9.50;99.90;;;;;;5050767;28;20424;-73
2023/03/25 04:03:23;;;;;;;4.70;1.93;;;9.20;99.90;;;;;;5050763;28;20466;-73
2023/03/25 04:05:57;;;;;;;1.70;1.60;;;9.20;99.90;;;;;;5051766;28;20489;-73
2023/03/25 04:08:30;;;;;;;2.60;1.40;;;9.20;99.90;;;;;;5051278;28;20434;-73
2023/03/25 04:11:04;;;;;;;2.27;1.10;;;9.10;99.90;;;;;;5050651;28;20514;-73
2023/03/25 04:13:35;;;;;;;4.53;1.33;;;9.20;99.90;;;;;;5050206;28;20428;-73
2023/03/25 04:16:02;;;;;;;2.70;1.30;;;9.20;99.90;;;;;;5050149;28;20523;-72
2023/03/25 04:18:32;;;;;;;1.00;0.80;;;9.20;99.90;;;;;;5050223;28;20442;-73
2023/03/25 04:20:59;;;;;;;1.20;0.90;;;9.30;99.90;;;;;;5049899;28;20433;-73
2023/03/25 04:23:28;;;;;;;3.73;1.60;;;9.40;99.90;;;;;;5030958;28;20479;-73
2023/03/25 04:25:56;;;;;;;3.37;1.43;;;9.60;99.90;;;;;;5049784;28;20847;-73
2023/03/25 04:28:24;;;;;;;1.50;1.33;;;9.60;99.90;;;;;;5031228;28;20497;-73
2023/03/25 04:30:54;;;;;;;2.13;1.20;;;9.70;99.90;;;;;;5050405;28;20422;-73
2023/03/25 04:33:21;;;;;;;1.30;0.90;;;9.60;99.90;;;;;;5050080;28;20458;-73
2023/03/25 04:35:49;;;;;;;1.13;0.83;;;9.50;99.90;;;;;;5050296;28;20448;-73
2023/03/25 04:38:17;;;;;;;2.70;0.90;;;9.40;99.90;;;;;;5050462;28;20474;-73
2023/03/25 04:40:45;;;;;;;2.57;0.87;;;9.40;99.90;;;;;;5051316;28;20870;-72
2023/03/25 04:43:12;;;;;;;1.00;0.80;;;9.40;99.90;;;;;;5049971;28;20475;-73
2023/03/25 04:45:47;;;;;;;1.60;1.37;;;9.40;99.90;;;;;;5050691;28;20447;-73
2023/03/25 04:48:22;;;;;;;1.37;1.00;;;9.40;99.90;;;;;;5059411;28;20466;-73
2023/03/25 04:50:50;;;;;;;5.17;1.00;;;9.40;99.90;;;;;;5060743;28;20481;-72
2023/03/25 04:53:19;;;;;;;1.30;0.80;;;9.40;99.90;;;;;;5053424;28;20991;-73
2023/03/25 04:55:48;;;;;;;1.20;0.93;;;9.30;99.90;;;;;;5053478;28;20531;-73
2023/03/25 04:58:16;;;;;;;1.33;0.90;;;9.30;99.90;;;;;;5053251;28;20939;-73
2023/03/25 05:00:48;;;;;;;1.30;0.90;;;9.20;99.90;;;;;;5053300;28;20988;-72
2023/03/25 05:03:16;;;;;;;2.90;1.10;;;9.20;99.90;;;;;;5053759;28;20512;-73
2023/03/25 05:05:43;;;;;;;3.47;1.53;;;9.30;99.90;;;;;;5065303;28;20430;-73
2023/03/25 05:08:13;;;;;;;4.13;1.77;;;9.20;99.90;;;;;;5062642;28;20466;-73
2023/03/25 05:10:42;;;;;;;5.53;1.23;;;9.20;99.90;;;;;;5053702;28;20434;-73
2023/03/25 05:13:08;;;;;;;2.53;1.00;;;9.30;99.90;;;;;;5053710;28;20429;-72
2023/03/25 05:15:38;;;;;;;1.27;0.90;;;9.30;99.90;;;;;;5066939;28;20479;-73
2023/03/25 05:18:08;;;;;;;4.77;1.47;;;9.30;99.90;;;;;;5071537;28;20470;-73
2023/03/25 05:20:38;;;;;;;2.40;1.13;;;9.40;99.90;;;;;;5063627;28;20443;-73
2023/03/25 05:23:10;;;;;;;5.23;1.37;;;9.40;99.90;;;;;;5053681;28;20827;-73
2023/03/25 05:25:38;;;;;;;1.10;0.97;;;9.40;99.90;;;;;;5052019;28;20432;-71
2023/03/25 05:28:08;;;;;;;1.30;0.90;;;9.40;99.90;;;;;;5052515;28;20506;-73
2023/03/25 05:30:38;;;;;;;2.00;1.10;;;9.50;99.90;;;;;;5052886;28;20562;-73
2023/03/25 05:33:06;;;;;;;5.13;1.50;;;9.30;99.90;;;;;;5051244;28;20443;-73
2023/03/25 05:35:33;;;;;;;2.60;1.50;;;9.40;99.90;;;;;;5052456;28;20575;-72
2023/03/25 05:38:00;;;;;;;1.80;0.90;;;9.50;99.90;;;;;;5052327;28;20445;-73
2023/03/25 05:40:28;;;;;;;1.00;0.70;;;9.50;99.90;;;;;;5052457;28;21002;-71
2023/03/25 05:42:55;;;;;;;1.20;0.80;;;9.50;99.90;;;;;;5052517;28;20539;-71
2023/03/25 05:45:23;;;;;;;4.57;1.10;;;9.40;99.90;;;;;;5052538;28;21035;-72
2023/03/25 05:47:51;;;;;;;1.30;0.90;;;9.40;99.90;;;;;;5052718;28;20554;-74
2023/03/25 05:50:21;;;;;;;8.10;1.13;;;9.40;99.90;;;;;;5052221;28;20457;-72
2023/03/25 05:52:50;;;;;;;3.50;1.03;;;9.40;99.90;;;;;;5052163;28;20431;-71
2023/03/25 05:55:20;;;;;;;1.50;1.07;;;9.40;99.90;;;;;;5052445;28;20440;-72
2023/03/25 05:57:47;;;;;;;2.53;0.87;;;9.50;99.90;;;;;;5052042;28;20452;-72
2023/03/25 06:00:17;;;;;;;3.23;1.37;;;9.40;99.90;;;;;;5053566;28;20428;-72
2023/03/25 06:02:45;;;;;;;2.07;1.10;;;9.40;99.90;;;;;;5052092;28;20406;-72
2023/03/25 06:05:13;;;;;;;0.90;0.70;;;9.50;99.90;;;;;;5051789;28;21009;-71
2023/03/25 06:07:42;;;;;;;2.60;1.33;;;9.60;99.90;;;;;;5051840;28;20490;-72
2023/03/25 06:10:10;;;;;;;2.13;1.60;;;9.50;99.90;;;;;;5052277;28;20948;-72
2023/03/25 06:12:38;;;;;;;1.87;1.00;;;9.60;99.90;;;;;;5052094;28;20859;-72
2023/03/25 06:15:07;;;;;;;2.80;1.00;;;9.60;99.90;;;;;;5053578;28;20444;-72
2023/03/25 06:17:37;;;;;;;7.03;1.57;;;9.60;99.90;;;;;;5063830;28;20479;-73
2023/03/25 06:20:09;;;;;;;3.70;1.50;;;9.60;99.90;;;;;;5055155;28;20425;-72
2023/03/25 06:22:37;;;;;;;4.17;1.53;;;9.70;99.90;;;;;;5052134;28;20432;-72
2023/03/25 06:25:07;;;;;;;0.90;0.67;;;9.70;99.90;;;;;;5051792;28;20509;-72
2023/03/25 06:27:39;;;;;;;10.53;2.47;;;9.70;99.90;;;;;;5051580;28;20546;-72
2023/03/25 06:30:08;;;;;;;4.67;1.20;;;9.60;99.90;;;;;;5051801;28;20432;-72
2023/03/25 06:32:35;;;;;;;4.60;1.10;;;9.60;99.90;;;;;;5051910;28;20749;-71
2023/03/25 06:35:02;;;;;;;8.43;2.03;;;9.60;99.90;;;;;;5060340;28;20507;-73
2023/03/25 06:37:31;;;;;;;5.63;1.63;;;9.70;99.90;;;;;;5055747;28;20906;-72
2023/03/25 06:39:58;;;;;;;2.10;1.30;;;9.60;99.90;;;;;;5051886;28;21019;-72
2023/03/25 06:42:27;;;;;;;3.97;1.90;;;9.70;99.90;;;;;;5053045;28;20999;-71
2023/03/25 06:44:57;;;;;;;1.53;0.80;;;9.80;99.90;;;;;;5051190;28;20940;-72
2023/03/25 06:47:24;;;;;;;1.87;1.20;;;9.80;99.90;;;;;;5051941;28;20447;-72
2023/03/25 06:49:54;;;;;;;3.30;1.50;;;10.00;99.90;;;;;;5053967;28;20642;-72
2023/03/25 06:52:22;;;;;;;1.10;1.00;;;10.10;99.90;;;;;;5051705;28;20413;-72
2023/03/25 06:54:49;;;;;;;1.57;1.10;;;10.00;99.90;;;;;;5051290;28;20444;-72
2023/03/25 06:57:16;;;;;;;2.70;1.17;;;10.00;99.90;;;;;;5050973;28;20522;-72
2023/03/25 06:59:46;;;;;;;2.07;1.43;;;10.10;99.90;;;;;;5051106;28;20451;-72
2023/03/25 07:02:13;;;;;;;1.53;1.07;;;10.10;99.90;;;;;;5051187;28;20447;-72
2023/03/25 07:04:40;;;;;;;2.63;1.10;;;10.10;99.90;;;;;;5051308;28;20570;-72
2023/03/25 07:07:08;;;;;;;1.50;1.17;;;10.10;99.90;;;;;;5051506;28;20526;-72
2023/03/25 07:09:35;;;;;;;1.77;1.63;;;10.10;99.90;;;;;;5051238;28;20474;-72
2023/03/25 07:12:02;;;;;;;1.63;0.80;;;10.00;99.90;;;;;;5053746;28;20446;-72
2023/03/25 07:14:29;;;;;;;2.07;1.87;;;10.10;99.90;;;;;;5071432;28;20411;-73
2023/03/25 07:16:57;;;;;;;2.53;1.57;;;10.30;99.90;;;;;;5064800;28;21045;-72
2023/03/25 07:19:24;;;;;;;1.03;0.73;;;10.50;99.90;;;;;;5052033;28;20448;-72
2023/03/25 07:21:51;;;;;;;1.13;1.03;;;10.60;99.90;;;;;;5051658;28;20447;-72
2023/03/25 07:24:18;;;;;;;1.60;1.27;;;10.70;99.90;;;;;;5051015;28;20574;-72
2023/03/25 07:26:47;;;;;;;6.13;2.00;;;10.60;99.90;;;;;;5050821;28;20844;-72
2023/03/25 07:29:14;;;;;;;5.33;2.13;;;10.60;99.90;;;;;;5050719;28;20418;-72
2023/03/25 07:31:41;;;;;;;4.20;1.83;;;10.40;99.90;;;;;;5050649;28;20454;-72
2023/03/25 07:34:09;;;;;;;5.07;2.67;;;10.50;99.90;;;;;;5050583;28;20486;-72
2023/03/25 07:36:36;;;;;;;9.40;2.57;;;10.30;99.90;;;;;;5050652;28;20451;-72
2023/03/25 07:39:03;;;;;;;5.73;1.93;;;10.40;99.90;;;;;;5050260;28;20487;-72
2023/03/25 07:41:30;;;;;;;2.00;1.33;;;10.40;99.90;;;;;;5050728;28;20471;-72
2023/03/25 07:43:57;;;;;;;2.10;1.67;;;10.50;99.90;;;;;;5051932;28;20899;-72
2023/03/25 07:46:24;;;;;;;1.80;1.33;;;10.40;99.90;;;;;;5055599;28;20571;-72
2023/03/25 07:48:52;;;;;;;4.93;1.20;;;10.40;99.90;;;;;;5051645;28;21025;-72
2023/03/25 07:51:20;;;;;;;4.83;2.50;;;10.50;99.90;;;;;;5052804;28;20440;-72
2023/03/25 07:53:47;;;;;;;1.93;1.00;;;10.50;99.90;;;;;;5050470;28;20447;-72
2023/03/25 07:56:15;;;;;;;1.23;1.07;;;10.50;99.90;;;;;;5050551;28;20507;-72
2023/03/25 07:58:43;;;;;;;1.87;1.70;;;10.40;99.90;;;;;;5050398;28;20451;-72
2023/03/25 08:01:10;;;;;;;6.00;1.83;;;10.20;99.90;;;;;;5050530;28;20481;-72
2023/03/25 08:03:38;;;;;;;2.30;1.67;;;10.20;99.90;;;;;;5050693;28;20446;-72
2023/03/25 08:06:06;;;;;;;2.57;1.73;;;10.20;99.90;;;;;;5057048;28;20466;-72
2023/03/25 08:08:36;;;;;;;5.00;1.03;;;10.20;99.90;;;;;;5055675;28;20440;-72
2023/03/25 08:11:03;;;;;;;3.17;2.73;;;10.10;99.90;;;;;;5062283;28;20471;-72
2023/03/25 08:13:31;;;;;;;3.70;1.90;;;10.10;99.90;;;;;;5050859;28;20850;-72
2023/03/25 08:15:58;;;;;;;2.67;2.47;;;10.20;99.90;;;;;;5049983;28;20467;-71
2023/03/25 08:18:27;;;;;;;2.60;1.57;;;10.20;99.90;;;;;;5050509;28;20526;-72
2023/03/25 08:20:54;;;;;;;1.80;1.10;;;10.20;99.90;;;;;;5050981;28;20483;-72
2023/03/25 08:23:22;;;;;;;2.23;1.70;;;10.20;99.90;;;;;;5054752;28;20440;-72
2023/03/25 08:25:52;;;;;;;3.47;1.20;;;10.30;99.90;;;;;;5054337;28;20487;-73
2023/03/25 08:28:21;;;;;;;1.10;0.80;;;10.30;99.90;;;;;;5054053;28;20883;-73
2023/03/25 08:30:49;;;;;;;2.80;1.20;;;10.50;99.90;;;;;;5055899;28;20459;-73
2023/03/25 08:33:17;;;;;;;1.80;1.50;;;10.60;99.90;;;;;;5054184;28;20546;-73
2023/03/25 08:35:45;;;;;;;4.13;1.30;;;10.90;99.90;;;;;;5053924;28;20534;-72
2023/03/25 08:38:11;;;;;;;1.30;1.20;;;11.10;99.90;;;;;;5053673;28;20860;-73
2023/03/25 08:40:39;;;;;;;4.03;1.23;;;11.20;99.90;;;;;;5054194;28;20450;-73
2023/03/25 08:43:08;;;;;;;3.33;2.30;;;11.50;99.90;;;;;;5053654;28;20443;-73
2023/03/25 08:45:35;;;;;;;1.73;1.37;;;11.60;99.90;;;;;;5053655;28;20571;-73
2023/03/25 08:48:04;;;;;;;1.27;1.13;;;11.60;99.90;;;;;;5053522;28;20547;-73
2023/03/25 08:50:31;;;;;;;4.17;1.80;;;11.40;99.90;;;;;;5053307;28;20497;-73
2023/03/25 08:52:58;;;;;;;2.67;2.10;;;10.90;99.90;;;;;;5053756;28;20443;-73
2023/03/25 08:55:25;;;;;;;4.37;1.50;;;10.70;99.90;;;;;;5054156;28;20425;-73
2023/03/25 08:57:52;;;;;;;1.97;1.20;;;10.50;99.90;;;;;;5053747;28;20477;-73
2023/03/25 09:00:23;;;;;;;5.20;1.40;;;10.60;99.90;;;;;;5055121;28;20481;-73
2023/03/25 09:02:51;;;;;;;1.27;1.07;;;10.80;99.90;;;;;;5054159;28;20454;-72
2023/03/25 09:05:21;;;;;;;3.80;2.00;;;11.20;99.90;;;;;;5055926;28;20479;-72
2023/03/25 09:07:48;;;;;;;2.90;1.50;;;11.30;99.90;;;;;;5061887;28;20492;-72
2023/03/25 09:10:14;;;;;;;1.47;1.37;;;11.30;99.90;;;;;;5053815;28;20447;-72
2023/03/25 09:12:42;;;;;;;1.33;1.23;;;11.40;99.90;;;;;;5053584;28;20480;-72
2023/03/25 09:15:10;;;;;;;1.80;1.60;;;11.30;99.90;;;;;;5051621;28;20864;-72
2023/03/25 09:17:39;;;;;;;6.33;1.40;;;11.10;99.90;;;;;;5053020;28;20503;-72
2023/03/25 09:20:08;;;;;;;2.50;1.47;;;11.00;99.90;;;;;;5052699;28;21118;-72
2023/03/25 09:22:36;;;;;;;2.07;1.67;;;10.80;99.90;;;;;;5052695;28;20530;-72
2023/03/25 09:25:07;;;;;;;4.57;1.57;;;10.70;99.90;;;;;;5052601;28;21017;-72
2023/03/25 09:27:34;;;;;;;2.50;1.50;;;10.70;99.90;;;;;;5051028;28;20550;-72
2023/03/25 09:30:02;;;;;;;1.80;1.40;;;10.60;99.90;;;;;;5052877;28;20448;-72
2023/03/25 09:32:29;;;;;;;10.53;1.83;;;10.60;99.90;;;;;;5057305;28;20486;-72
2023/03/25 09:34:57;;;;;;;5.87;2.37;;;10.60;99.90;;;;;;5053957;28;20482;-73
2023/03/25 09:37:25;;;;;;;1.20;1.00;;;10.70;99.90;;;;;;5052265;28;20997;-73
2023/03/25 09:39:52;;;;;;;1.47;1.07;;;10.80;99.90;;;;;;5052693;28;20946;-73
2023/03/25 09:42:35;;;;;;;1.40;0.80;;;11.30;99.90;;;;;;5052362;28;20444;-73
2023/03/25 09:45:14;;;;;;;1.03;0.70;;;12.50;99.90;;;;;;5052563;28;20459;-73
2023/03/25 09:47:51;;;;;;;2.03;1.10;;;13.20;99.90;;;;;;5052410;28;20446;-73
2023/03/25 09:50:21;;;;;;;3.60;1.30;;;13.30;99.90;;;;;;5052264;28;20424;-71
2023/03/25 09:52:54;;;;;;;5.73;1.57;;;12.90;99.90;;;;;;5052188;28;20452;-71
2023/03/25 09:55:25;;;;;;;4.50;1.50;;;12.20;99.90;;;;;;5051027;28;20440;-73
2023/03/25 09:58:01;;;;;;;13.17;2.80;;;11.70;99.90;;;;;;5052024;28;20495;-73
2023/03/25 10:00:28;;;;;;;2.60;1.50;;;11.40;99.90;;;;;;5054032;28;20463;-73
2023/03/25 10:03:16;;;;;;;4.40;1.40;;;11.30;99.90;;;;;;5061851;28;20462;-71
2023/03/25 10:06:02;;;;;;;2.40;1.20;;;11.40;99.90;;;;;;5054741;28;20554;-71
2023/03/25 10:08:38;;;;;;;1.60;1.50;;;11.50;99.90;;;;;;5053733;28;20436;-71
2023/03/25 10:11:09;;;;;;;3.00;2.13;;;11.70;99.90;;;;;;5054876;28;20470;-71
2023/03/25 10:13:46;;;;;;;6.40;1.40;;;11.80;99.90;;;;;;5052864;28;20475;-71
2023/03/25 10:16:23;;;;;;;6.67;1.67;;;11.80;99.90;;;;;;5052076;28;20513;-71
2023/03/25 10:19:05;;;;;;;4.70;1.57;;;11.90;99.90;;;;;;5055261;28;20557;-71
2023/03/25 10:21:40;;;;;;;5.07;1.77;;;11.80;99.90;;;;;;5052307;28;20452;-71
2023/03/25 10:24:17;;;;;;;3.40;1.40;;;11.70;99.90;;;;;;5052271;28;20807;-71
2023/03/25 10:26:49;;;;;;;6.20;4.43;;;11.50;99.90;;;;;;5052287;28;20460;-71
2023/03/25 10:29:20;;;;;;;3.80;1.60;;;11.40;99.90;;;;;;5052088;28;20428;-71
2023/03/25 10:31:52;;;;;;;9.03;1.83;;;11.10;99.90;;;;;;5051749;28;20427;-71
2023/03/25 10:34:23;;;;;;;3.40;1.23;;;11.10;99.90;;;;;;5051788;28;20432;-72
2023/03/25 10:36:56;;;;;;;3.43;2.20;;;11.00;99.90;;;;;;5051421;28;20463;-71
2023/03/25 10:39:32;;;;;;;2.80;1.40;;;10.90;99.90;;;;;;5051611;28;20459;-71
2023/03/25 10:42:04;;;;;;;3.13;1.17;;;10.60;99.90;;;;;;5051741;28;20493;-71
2023/03/25 10:44:31;;;;;;;4.27;2.00;;;10.50;99.90;;;;;;5050432;28;20920;-72
2023/03/25 10:47:02;;;;;;;6.93;2.37;;;10.90;99.90;;;;;;5051465;28;20498;-71
2023/03/25 10:49:31;;;;;;;9.10;2.20;;;11.80;99.90;;;;;;5051347;28;20452;-72
2023/03/25 10:52:01;;;;;;;7.63;1.97;;;12.30;99.90;;;;;;5051376;28;20463;-72
2023/03/25 10:54:31;;;;;;;3.13;1.27;;;13.00;99.90;;;;;;5051312;28;20912;-71
2023/03/25 10:57:01;;;;;;;2.93;1.40;;;13.00;99.90;;;;;;5052773;28;20521;-71
2023/03/25 10:59:34;;;;;;;5.70;2.30;;;12.60;99.90;;;;;;5062967;28;20455;-72
2023/03/25 11:02:12;;;;;;;15.43;3.17;;;12.00;99.90;;;;;;5051675;28;20409;-71
2023/03/25 11:04:43;;;;;;;2.67;1.97;;;11.50;99.90;;;;;;5050844;28;20467;-72
2023/03/25 11:07:19;;;;;;;3.10;1.70;;;11.40;99.90;;;;;;5050697;28;20474;-72
2023/03/25 11:09:46;;;;;;;13.97;3.53;;;11.10;99.90;;;;;;5051031;28;20501;-71
2023/03/25 11:12:18;;;;;;;4.80;1.50;;;11.10;99.90;;;;;;5050881;28;20483;-71
2023/03/25 11:14:48;;;;;;;4.00;1.87;;;11.10;99.90;;;;;;5050588;28;20622;-72
2023/03/25 11:17:16;;;;;;;4.17;1.40;;;10.90;99.90;;;;;;5050593;28;20468;-72
2023/03/25 11:19:50;;;;;;;2.80;1.40;;;10.70;99.90;;;;;;5051553;28;20444;-71
2023/03/25 11:22:22;;;;;;;4.33;1.80;;;10.70;99.90;;;;;;5051907;28;20663;-72
2023/03/25 11:24:53;;;;;;;6.70;1.77;;;10.60;99.90;;;;;;5051238;28;20995;-72
2023/03/25 11:27:23;;;;;;;8.93;3.63;;;10.60;99.90;;;;;;5051507;28;20504;-71
2023/03/25 11:29:53;;;;;;;6.53;2.00;;;10.60;99.90;;;;;;5051473;28;21043;-71
2023/03/25 11:32:32;;;;;;;5.07;1.80;;;10.80;99.90;;;;;;5052601;28;20534;-72
2023/03/25 11:35:02;;;;;;;2.20;1.10;;;10.90;99.90;;;;;;5051851;28;20514;-71
2023/03/25 11:37:31;;;;;;;3.70;1.43;;;11.00;99.90;;;;;;5050359;28;20570;-71
2023/03/25 11:40:05;;;;;;;1.60;1.37;;;11.00;99.90;;;;;;5050482;28;20500;-72
2023/03/25 11:42:35;;;;;;;5.33;1.70;;;11.20;99.90;;;;;;5050006;28;20911;-72
2023/03/25 11:45:03;;;;;;;5.40;1.83;;;12.10;99.90;;;;;;5050522;28;20515;-71
2023/03/25 11:47:32;;;;;;;1.70;1.20;;;12.80;99.90;;;;;;5050401;28;20459;-72
2023/03/25 11:50:01;;;;;;;1.30;1.03;;;13.80;99.90;;;;;;5050853;28;20441;-72
2023/03/25 11:52:36;;;;;;;8.20;1.53;;;14.30;99.90;;;;;;5053317;28;20439;-72
2023/03/25 11:55:03;;;;;;;1.40;1.00;;;14.60;99.90;;;;;;5065046;28;20423;-72
2023/03/25 11:57:38;;;;;;;1.30;0.97;;;15.00;99.90;;;;;;5054748;28;20505;-72
2023/03/25 12:00:27;;;;;;;1.63;1.00;;;14.60;99.90;;;;;;5054190;28;20642;-72
2023/03/25 12:03:00;;;;;;;1.87;0.87;;;14.50;99.90;;;;;;5054629;28;20469;-72
2023/03/25 12:05:27;;;;;;;4.90;1.53;;;14.80;99.90;;;;;;5053922;28;20578;-72
2023/03/25 12:08:04;;;;;;;4.70;1.40;;;14.30;99.90;;;;;;5053707;28;20525;-72
2023/03/25 12:10:43;;;;;;;2.33;1.40;;;14.20;99.90;;;;;;5054587;28;20945;-72
2023/03/25 12:13:16;;;;;;;2.00;1.23;;;14.40;99.90;;;;;;5054466;28;20452;-72
2023/03/25 12:15:50;;;;;;;2.50;1.53;;;14.40;99.90;;;;;;5053898;28;20904;-72
2023/03/25 12:18:34;;;;;;;2.60;0.90;;;14.80;99.90;;;;;;5053966;28;20431;-72
2023/03/25 12:21:12;;;;;;;4.43;1.60;;;14.70;99.90;;;;;;5053360;28;20454;-72
2023/03/25 12:23:52;;;;;;;2.50;1.20;;;14.10;99.90;;;;;;5055761;28;20435;-72
2023/03/25 12:26:26;;;;;;;1.80;1.00;;;13.50;99.90;;;;;;5060789;28;20502;-72
2023/03/25 12:29:17;;;;;;;3.30;1.70;;;13.00;99.90;;;;;;5053913;28;20423;-72
2023/03/25 12:31:57;;;;;;;1.83;0.90;;;12.80;99.90;;;;;;5053910;28;20432;-72
2023/03/25 12:34:36;;;;;;;1.50;1.00;;;12.60;99.90;;;;;;5053916;28;20427;-71
2023/03/25 12:37:13;;;;;;;7.40;1.50;;;12.20;99.90;;;;;;5053670;28;20469;-72
2023/03/25 12:39:56;;;;;;;1.40;0.90;;;12.20;99.90;;;;;;5054074;28;20573;-72
2023/03/25 12:42:37;;;;;;;2.87;1.20;;;12.50;99.90;;;;;;5053959;28;20879;-72
2023/03/25 12:45:34;;;;;;;3.00;1.13;;;12.70;99.90;;;;;;5057699;28;20463;-72
2023/03/25 12:48:07;;;;;;;4.80;2.10;;;12.80;99.90;;;;;;5052037;28;20478;-72
2023/03/25 12:50:42;;;;;;;2.20;1.37;;;12.80;99.90;;;;;;5059998;28;20437;-72
2023/03/25 12:53:26;;;;;;;3.10;1.33;;;13.00;99.90;;;;;;5053871;28;20459;-72
2023/03/25 12:56:10;;;;;;;1.80;1.10;;;13.50;99.90;;;;;;5053601;28;20545;-72
2023/03/25 12:59:25;;;;;;;3.20;1.70;;;14.40;99.90;;;;;;5053050;28;20968;-72
2023/03/25 13:02:03;;;;;;;2.90;1.60;;;14.20;99.90;;;;;;5053517;28;20490;-72
2023/03/25 13:04:48;;;;;;;2.07;1.10;;;13.80;99.90;;;;;;5053102;28;20420;-71
2023/03/25 13:07:22;;;;;;;7.07;2.03;;;14.10;99.90;;;;;;5051711;28;20995;-71
2023/03/25 13:09:57;;;;;;;2.07;1.00;;;14.40;99.90;;;;;;5052673;28;20428;-71